sensor_id;sensor_type;location;lat;lon;timestamp;P1;durP1;ratioP1;P2;durP2;ratioP2
27313;SDS011;14800;48.174;9.798;2022-07-06T00:01:32;1.38;;;1.27;;
27313;SDS011;14800;48.174;9.798;2022-07-06T00:03:57;3.22;;;1.50;;
27313;SDS011;14800;48.174;9.798;2022-07-06T00:06:23;1.65;;;1.48;;
27313;SDS011;14800;48.174;9.798;2022-07-06T00:08:49;1.50;;;1.40;;
27313;SDS011;14800;48.174;9.798;2022-07-06T00:11:15;2.53;;;1.70;;
27313;SDS011;14800;48.174;9.798;2022-07-06T00:13:41;3.55;;;1.35;;
27313;SDS011;14800;48.174;9.798;2022-07-06T00:16:07;1.90;;;1.55;;
27313;SDS011;14800;48.174;9.798;2022-07-06T00:18:32;2.03;;;1.55;;
27313;SDS011;14800;48.174;9.798;2022-07-06T00:20:58;3.42;;;1.65;;
27313;SDS011;14800;48.174;9.798;2022-07-06T00:23:24;2.50;;;1.60;;
27313;SDS011;14800;48.174;9.798;2022-07-06T00:25:49;2.38;;;1.70;;
27313;SDS011;14800;48.174;9.798;2022-07-06T00:28:15;1.65;;;1.52;;
27313;SDS011;14800;48.174;9.798;2022-07-06T00:30:41;1.75;;;1.65;;
27313;SDS011;14800;48.174;9.798;2022-07-06T00:33:07;2.08;;;1.48;;
27313;SDS011;14800;48.174;9.798;2022-07-06T00:35:32;4.75;;;1.60;;
27313;SDS011;14800;48.174;9.798;2022-07-06T00:37:58;1.67;;;1.50;;
27313;SDS011;14800;48.174;9.798;2022-07-06T00:40:24;1.98;;;1.50;;
27313;SDS011;14800;48.174;9.798;2022-07-06T00:42:50;3.47;;;1.60;;
27313;SDS011;14800;48.174;9.798;2022-07-06T00:45:16;2.30;;;1.50;;
27313;SDS011;14800;48.174;9.798;2022-07-06T00:47:43;2.00;;;1.50;;
27313;SDS011;14800;48.174;9.798;2022-07-06T00:50:10;1.33;;;1.23;;
27313;SDS011;14800;48.174;9.798;2022-07-06T00:52:43;5.85;;;1.30;;
27313;SDS011;14800;48.174;9.798;2022-07-06T00:55:11;4.13;;;1.52;;
27313;SDS011;14800;48.174;9.798;2022-07-06T00:57:38;2.30;;;1.50;;
27313;SDS011;14800;48.174;9.798;2022-07-06T01:00:05;1.38;;;1.27;;
27313;SDS011;14800;48.174;9.798;2022-07-06T01:02:32;1.88;;;1.40;;
27313;SDS011;14800;48.174;9.798;2022-07-06T01:04:59;1.60;;;1.50;;
27313;SDS011;14800;48.174;9.798;2022-07-06T01:07:25;1.75;;;1.60;;
27313;SDS011;14800;48.174;9.798;2022-07-06T01:09:51;1.83;;;1.33;;
27313;SDS011;14800;48.174;9.798;2022-07-06T01:12:16;1.58;;;1.25;;
27313;SDS011;14800;48.174;9.798;2022-07-06T01:14:43;1.73;;;1.40;;
27313;SDS011;14800;48.174;9.798;2022-07-06T01:17:09;1.50;;;1.40;;
27313;SDS011;14800;48.174;9.798;2022-07-06T01:19:35;1.50;;;1.40;;
27313;SDS011;14800;48.174;9.798;2022-07-06T01:22:01;1.45;;;1.35;;
27313;SDS011;14800;48.174;9.798;2022-07-06T01:24:27;1.50;;;1.40;;
27313;SDS011;14800;48.174;9.798;2022-07-06T01:26:53;1.63;;;1.52;;
27313;SDS011;14800;48.174;9.798;2022-07-06T01:29:19;1.60;;;1.50;;
27313;SDS011;14800;48.174;9.798;2022-07-06T01:31:48;1.58;;;1.45;;
27313;SDS011;14800;48.174;9.798;2022-07-06T01:34:17;1.65;;;1.55;;
27313;SDS011;14800;48.174;9.798;2022-07-06T01:36:43;1.45;;;1.35;;
27313;SDS011;14800;48.174;9.798;2022-07-06T01:39:10;1.38;;;1.27;;
27313;SDS011;14800;48.174;9.798;2022-07-06T01:41:36;1.60;;;1.50;;
27313;SDS011;14800;48.174;9.798;2022-07-06T01:44:03;2.40;;;1.40;;
27313;SDS011;14800;48.174;9.798;2022-07-06T01:46:29;3.20;;;1.60;;
27313;SDS011;14800;48.174;9.798;2022-07-06T01:48:55;3.75;;;1.77;;
27313;SDS011;14800;48.174;9.798;2022-07-06T01:51:21;5.28;;;1.50;;
27313;SDS011;14800;48.174;9.798;2022-07-06T01:53:48;1.75;;;1.58;;
27313;SDS011;14800;48.174;9.798;2022-07-06T01:56:14;2.55;;;1.35;;
27313;SDS011;14800;48.174;9.798;2022-07-06T01:58:40;2.75;;;1.70;;
27313;SDS011;14800;48.174;9.798;2022-07-06T02:01:06;1.80;;;1.70;;
27313;SDS011;14800;48.174;9.798;2022-07-06T02:03:36;1.80;;;1.70;;
27313;SDS011;14800;48.174;9.798;2022-07-06T02:06:02;3.05;;;1.67;;
27313;SDS011;14800;48.174;9.798;2022-07-06T02:08:29;1.60;;;1.50;;
27313;SDS011;14800;48.174;9.798;2022-07-06T02:10:55;1.85;;;1.73;;
27313;SDS011;14800;48.174;9.798;2022-07-06T02:13:21;2.92;;;1.55;;
27313;SDS011;14800;48.174;9.798;2022-07-06T02:15:46;4.53;;;2.05;;
27313;SDS011;14800;48.174;9.798;2022-07-06T02:18:12;3.75;;;2.10;;
27313;SDS011;14800;48.174;9.798;2022-07-06T02:20:37;3.75;;;2.20;;
27313;SDS011;14800;48.174;9.798;2022-07-06T02:23:03;2.85;;;1.80;;
27313;SDS011;14800;48.174;9.798;2022-07-06T02:25:28;1.70;;;1.60;;
27313;SDS011;14800;48.174;9.798;2022-07-06T02:27:54;2.83;;;1.88;;
27313;SDS011;14800;48.174;9.798;2022-07-06T02:30:20;2.08;;;1.70;;
27313;SDS011;14800;48.174;9.798;2022-07-06T02:32:46;1.90;;;1.80;;
27313;SDS011;14800;48.174;9.798;2022-07-06T02:35:11;3.40;;;1.77;;
27313;SDS011;14800;48.174;9.798;2022-07-06T02:37:38;1.65;;;1.55;;
27313;SDS011;14800;48.174;9.798;2022-07-06T02:40:04;2.72;;;1.80;;
27313;SDS011;14800;48.174;9.798;2022-07-06T02:42:30;2.38;;;1.70;;
27313;SDS011;14800;48.174;9.798;2022-07-06T02:44:56;1.75;;;1.65;;
27313;SDS011;14800;48.174;9.798;2022-07-06T02:47:21;2.00;;;1.90;;
27313;SDS011;14800;48.174;9.798;2022-07-06T02:49:47;3.20;;;1.80;;
27313;SDS011;14800;48.174;9.798;2022-07-06T02:52:13;1.88;;;1.73;;
27313;SDS011;14800;48.174;9.798;2022-07-06T02:54:38;2.80;;;1.73;;
27313;SDS011;14800;48.174;9.798;2022-07-06T02:57:04;4.03;;;1.60;;
27313;SDS011;14800;48.174;9.798;2022-07-06T02:59:29;2.47;;;1.88;;
27313;SDS011;14800;48.174;9.798;2022-07-06T03:01:55;2.90;;;1.70;;
27313;SDS011;14800;48.174;9.798;2022-07-06T03:04:21;4.72;;;1.70;;
27313;SDS011;14800;48.174;9.798;2022-07-06T03:06:46;3.17;;;1.58;;
27313;SDS011;14800;48.174;9.798;2022-07-06T03:09:12;2.72;;;2.10;;
27313;SDS011;14800;48.174;9.798;2022-07-06T03:11:38;2.00;;;1.77;;
27313;SDS011;14800;48.174;9.798;2022-07-06T03:14:04;1.70;;;1.60;;
27313;SDS011;14800;48.174;9.798;2022-07-06T03:16:30;2.17;;;1.70;;
27313;SDS011;14800;48.174;9.798;2022-07-06T03:18:55;1.77;;;1.67;;
27313;SDS011;14800;48.174;9.798;2022-07-06T03:21:22;1.67;;;1.52;;
27313;SDS011;14800;48.174;9.798;2022-07-06T03:23:48;4.13;;;1.85;;
27313;SDS011;14800;48.174;9.798;2022-07-06T03:26:13;2.83;;;1.60;;
27313;SDS011;14800;48.174;9.798;2022-07-06T03:28:39;3.17;;;1.73;;
27313;SDS011;14800;48.174;9.798;2022-07-06T03:31:05;2.35;;;2.00;;
27313;SDS011;14800;48.174;9.798;2022-07-06T03:33:30;2.38;;;1.60;;
27313;SDS011;14800;48.174;9.798;2022-07-06T03:35:56;1.77;;;1.67;;
27313;SDS011;14800;48.174;9.798;2022-07-06T03:38:22;1.90;;;1.65;;
27313;SDS011;14800;48.174;9.798;2022-07-06T03:40:47;2.13;;;1.92;;
27313;SDS011;14800;48.174;9.798;2022-07-06T03:43:13;1.50;;;1.40;;
27313;SDS011;14800;48.174;9.798;2022-07-06T03:45:39;2.78;;;1.80;;
27313;SDS011;14800;48.174;9.798;2022-07-06T03:48:04;2.53;;;1.70;;
27313;SDS011;14800;48.174;9.798;2022-07-06T03:50:30;2.13;;;1.80;;
27313;SDS011;14800;48.174;9.798;2022-07-06T03:52:56;2.75;;;1.80;;
27313;SDS011;14800;48.174;9.798;2022-07-06T03:55:22;2.42;;;2.15;;
27313;SDS011;14800;48.174;9.798;2022-07-06T03:57:47;6.43;;;1.88;;
27313;SDS011;14800;48.174;9.798;2022-07-06T04:00:13;2.42;;;2.03;;
27313;SDS011;14800;48.174;9.798;2022-07-06T04:02:39;2.95;;;1.90;;
27313;SDS011;14800;48.174;9.798;2022-07-06T04:05:05;1.95;;;1.77;;
27313;SDS011;14800;48.174;9.798;2022-07-06T04:07:31;2.10;;;1.75;;
27313;SDS011;14800;48.174;9.798;2022-07-06T04:09:56;2.15;;;1.95;;
27313;SDS011;14800;48.174;9.798;2022-07-06T04:12:22;5.40;;;2.00;;
27313;SDS011;14800;48.174;9.798;2022-07-06T04:14:48;3.70;;;1.88;;
27313;SDS011;14800;48.174;9.798;2022-07-06T04:17:13;4.40;;;1.98;;
27313;SDS011;14800;48.174;9.798;2022-07-06T04:19:58;2.08;;;1.77;;
27313;SDS011;14800;48.174;9.798;2022-07-06T04:22:24;2.30;;;1.85;;
27313;SDS011;14800;48.174;9.798;2022-07-06T04:24:49;2.00;;;1.85;;
27313;SDS011;14800;48.174;9.798;2022-07-06T04:27:15;2.58;;;2.10;;
27313;SDS011;14800;48.174;9.798;2022-07-06T04:29:40;2.53;;;1.95;;
27313;SDS011;14800;48.174;9.798;2022-07-06T04:32:06;3.35;;;1.88;;
27313;SDS011;14800;48.174;9.798;2022-07-06T04:34:32;3.20;;;1.60;;
27313;SDS011;14800;48.174;9.798;2022-07-06T04:36:58;2.40;;;1.80;;
27313;SDS011;14800;48.174;9.798;2022-07-06T04:39:23;1.90;;;1.80;;
27313;SDS011;14800;48.174;9.798;2022-07-06T04:41:49;3.45;;;2.10;;
27313;SDS011;14800;48.174;9.798;2022-07-06T04:44:14;1.88;;;1.77;;
27313;SDS011;14800;48.174;9.798;2022-07-06T04:46:40;2.65;;;1.83;;
27313;SDS011;14800;48.174;9.798;2022-07-06T04:49:05;2.17;;;1.98;;
27313;SDS011;14800;48.174;9.798;2022-07-06T04:51:32;1.90;;;1.80;;
27313;SDS011;14800;48.174;9.798;2022-07-06T04:53:57;4.35;;;1.88;;
27313;SDS011;14800;48.174;9.798;2022-07-06T04:56:23;2.45;;;1.92;;
27313;SDS011;14800;48.174;9.798;2022-07-06T04:58:49;2.30;;;2.08;;
27313;SDS011;14800;48.174;9.798;2022-07-06T05:01:14;2.92;;;2.25;;
27313;SDS011;14800;48.174;9.798;2022-07-06T05:03:40;2.33;;;2.10;;
27313;SDS011;14800;48.174;9.798;2022-07-06T05:06:06;2.50;;;2.03;;
27313;SDS011;14800;48.174;9.798;2022-07-06T05:08:32;3.03;;;1.85;;
27313;SDS011;14800;48.174;9.798;2022-07-06T05:10:58;7.95;;;1.90;;
27313;SDS011;14800;48.174;9.798;2022-07-06T05:13:24;3.95;;;2.03;;
27313;SDS011;14800;48.174;9.798;2022-07-06T05:15:50;2.53;;;2.17;;
27313;SDS011;14800;48.174;9.798;2022-07-06T05:18:15;1.98;;;1.88;;
27313;SDS011;14800;48.174;9.798;2022-07-06T05:20:41;6.35;;;2.17;;
27313;SDS011;14800;48.174;9.798;2022-07-06T05:23:07;7.65;;;2.30;;
27313;SDS011;14800;48.174;9.798;2022-07-06T05:25:33;3.60;;;1.88;;
27313;SDS011;14800;48.174;9.798;2022-07-06T05:27:59;3.28;;;1.90;;
27313;SDS011;14800;48.174;9.798;2022-07-06T05:30:25;4.00;;;2.05;;
27313;SDS011;14800;48.174;9.798;2022-07-06T05:32:51;5.28;;;2.05;;
27313;SDS011;14800;48.174;9.798;2022-07-06T05:35:17;3.47;;;2.30;;
27313;SDS011;14800;48.174;9.798;2022-07-06T05:37:43;2.90;;;2.13;;
27313;SDS011;14800;48.174;9.798;2022-07-06T05:40:08;5.35;;;2.30;;
27313;SDS011;14800;48.174;9.798;2022-07-06T05:42:35;1.90;;;1.80;;
27313;SDS011;14800;48.174;9.798;2022-07-06T05:45:00;3.63;;;1.90;;
27313;SDS011;14800;48.174;9.798;2022-07-06T05:47:28;2.50;;;2.10;;
27313;SDS011;14800;48.174;9.798;2022-07-06T05:50:12;2.22;;;1.98;;
27313;SDS011;14800;48.174;9.798;2022-07-06T05:52:38;2.58;;;2.05;;
27313;SDS011;14800;48.174;9.798;2022-07-06T05:55:09;2.13;;;2.03;;
27313;SDS011;14800;48.174;9.798;2022-07-06T05:57:36;2.45;;;2.20;;
27313;SDS011;14800;48.174;9.798;2022-07-06T06:00:03;2.50;;;1.90;;
27313;SDS011;14800;48.174;9.798;2022-07-06T06:02:39;3.13;;;2.05;;
27313;SDS011;14800;48.174;9.798;2022-07-06T06:05:10;3.90;;;2.20;;
27313;SDS011;14800;48.174;9.798;2022-07-06T06:07:36;2.80;;;2.35;;
27313;SDS011;14800;48.174;9.798;2022-07-06T06:10:03;4.05;;;2.13;;
27313;SDS011;14800;48.174;9.798;2022-07-06T06:12:29;2.55;;;2.35;;
27313;SDS011;14800;48.174;9.798;2022-07-06T06:14:55;2.35;;;1.80;;
27313;SDS011;14800;48.174;9.798;2022-07-06T06:17:20;4.50;;;2.47;;
27313;SDS011;14800;48.174;9.798;2022-07-06T06:19:46;2.92;;;2.08;;
27313;SDS011;14800;48.174;9.798;2022-07-06T06:22:12;2.35;;;1.85;;
27313;SDS011;14800;48.174;9.798;2022-07-06T06:24:38;2.17;;;1.95;;
27313;SDS011;14800;48.174;9.798;2022-07-06T06:27:03;3.20;;;2.00;;
27313;SDS011;14800;48.174;9.798;2022-07-06T06:29:29;4.20;;;2.17;;
27313;SDS011;14800;48.174;9.798;2022-07-06T06:31:55;4.53;;;2.00;;
27313;SDS011;14800;48.174;9.798;2022-07-06T06:34:20;2.95;;;1.90;;
27313;SDS011;14800;48.174;9.798;2022-07-06T06:36:46;2.25;;;2.05;;
27313;SDS011;14800;48.174;9.798;2022-07-06T06:39:12;2.03;;;1.92;;
27313;SDS011;14800;48.174;9.798;2022-07-06T06:41:37;1.90;;;1.80;;
27313;SDS011;14800;48.174;9.798;2022-07-06T06:44:03;2.45;;;1.98;;
27313;SDS011;14800;48.174;9.798;2022-07-06T06:46:28;2.28;;;2.00;;
27313;SDS011;14800;48.174;9.798;2022-07-06T06:48:54;2.88;;;2.10;;
27313;SDS011;14800;48.174;9.798;2022-07-06T06:51:20;1.90;;;1.80;;
27313;SDS011;14800;48.174;9.798;2022-07-06T06:53:45;2.08;;;1.88;;
27313;SDS011;14800;48.174;9.798;2022-07-06T06:56:11;2.50;;;2.28;;
27313;SDS011;14800;48.174;9.798;2022-07-06T06:58:37;3.25;;;2.10;;
27313;SDS011;14800;48.174;9.798;2022-07-06T07:01:03;7.05;;;2.17;;
27313;SDS011;14800;48.174;9.798;2022-07-06T07:03:29;2.40;;;1.90;;
27313;SDS011;14800;48.174;9.798;2022-07-06T07:05:56;2.63;;;1.83;;
27313;SDS011;14800;48.174;9.798;2022-07-06T07:08:22;2.92;;;1.80;;
27313;SDS011;14800;48.174;9.798;2022-07-06T07:10:47;2.60;;;1.90;;
27313;SDS011;14800;48.174;9.798;2022-07-06T07:13:13;2.90;;;2.00;;
27313;SDS011;14800;48.174;9.798;2022-07-06T07:15:38;2.42;;;2.20;;
27313;SDS011;14800;48.174;9.798;2022-07-06T07:18:04;2.95;;;2.00;;
27313;SDS011;14800;48.174;9.798;2022-07-06T07:20:30;1.85;;;1.73;;
27313;SDS011;14800;48.174;9.798;2022-07-06T07:22:56;2.67;;;1.90;;
27313;SDS011;14800;48.174;9.798;2022-07-06T07:25:22;4.43;;;2.15;;
27313;SDS011;14800;48.174;9.798;2022-07-06T07:27:48;1.92;;;1.63;;
27313;SDS011;14800;48.174;9.798;2022-07-06T07:30:13;4.45;;;2.20;;
27313;SDS011;14800;48.174;9.798;2022-07-06T07:32:39;2.17;;;1.98;;
27313;SDS011;14800;48.174;9.798;2022-07-06T07:35:08;2.28;;;1.98;;
27313;SDS011;14800;48.174;9.798;2022-07-06T07:37:34;2.00;;;1.80;;
27313;SDS011;14800;48.174;9.798;2022-07-06T07:40:00;3.22;;;1.67;;
27313;SDS011;14800;48.174;9.798;2022-07-06T07:42:26;2.45;;;1.73;;
27313;SDS011;14800;48.174;9.798;2022-07-06T07:44:52;3.08;;;1.90;;
27313;SDS011;14800;48.174;9.798;2022-07-06T07:47:17;3.60;;;1.85;;
27313;SDS011;14800;48.174;9.798;2022-07-06T07:49:43;2.35;;;1.85;;
27313;SDS011;14800;48.174;9.798;2022-07-06T07:52:08;2.67;;;2.20;;
27313;SDS011;14800;48.174;9.798;2022-07-06T07:54:34;2.20;;;2.00;;
27313;SDS011;14800;48.174;9.798;2022-07-06T07:57:00;2.90;;;1.70;;
27313;SDS011;14800;48.174;9.798;2022-07-06T07:59:26;4.35;;;1.60;;
27313;SDS011;14800;48.174;9.798;2022-07-06T08:01:52;1.73;;;1.60;;
27313;SDS011;14800;48.174;9.798;2022-07-06T08:04:17;2.35;;;1.90;;
27313;SDS011;14800;48.174;9.798;2022-07-06T08:06:43;3.03;;;1.80;;
27313;SDS011;14800;48.174;9.798;2022-07-06T08:09:09;2.58;;;1.83;;
27313;SDS011;14800;48.174;9.798;2022-07-06T08:11:34;3.13;;;2.00;;
27313;SDS011;14800;48.174;9.798;2022-07-06T08:14:00;1.90;;;1.80;;
27313;SDS011;14800;48.174;9.798;2022-07-06T08:16:27;2.20;;;2.00;;
27313;SDS011;14800;48.174;9.798;2022-07-06T08:18:53;3.47;;;1.85;;
27313;SDS011;14800;48.174;9.798;2022-07-06T08:21:19;2.97;;;1.90;;
27313;SDS011;14800;48.174;9.798;2022-07-06T08:23:45;2.60;;;1.80;;
27313;SDS011;14800;48.174;9.798;2022-07-06T08:26:11;5.82;;;2.10;;
27313;SDS011;14800;48.174;9.798;2022-07-06T08:28:36;2.30;;;1.80;;
27313;SDS011;14800;48.174;9.798;2022-07-06T08:31:02;2.90;;;1.92;;
27313;SDS011;14800;48.174;9.798;2022-07-06T08:33:28;3.53;;;1.90;;
27313;SDS011;14800;48.174;9.798;2022-07-06T08:35:54;2.20;;;2.00;;
27313;SDS011;14800;48.174;9.798;2022-07-06T08:38:20;3.38;;;2.13;;
27313;SDS011;14800;48.174;9.798;2022-07-06T08:40:49;3.10;;;1.90;;
27313;SDS011;14800;48.174;9.798;2022-07-06T08:43:16;2.90;;;1.83;;
27313;SDS011;14800;48.174;9.798;2022-07-06T08:45:42;2.17;;;1.90;;
27313;SDS011;14800;48.174;9.798;2022-07-06T08:48:10;4.68;;;1.73;;
27313;SDS011;14800;48.174;9.798;2022-07-06T08:50:36;1.50;;;1.40;;
27313;SDS011;14800;48.174;9.798;2022-07-06T08:53:03;3.88;;;1.90;;
27313;SDS011;14800;48.174;9.798;2022-07-06T08:55:29;2.17;;;1.73;;
27313;SDS011;14800;48.174;9.798;2022-07-06T08:57:56;1.65;;;1.55;;
27313;SDS011;14800;48.174;9.798;2022-07-06T09:00:25;4.85;;;1.80;;
27313;SDS011;14800;48.174;9.798;2022-07-06T09:02:51;2.67;;;1.80;;
27313;SDS011;14800;48.174;9.798;2022-07-06T09:05:21;2.15;;;1.50;;
27313;SDS011;14800;48.174;9.798;2022-07-06T09:07:50;3.50;;;1.80;;
27313;SDS011;14800;48.174;9.798;2022-07-06T09:10:18;2.65;;;1.58;;
27313;SDS011;14800;48.174;9.798;2022-07-06T09:12:45;4.50;;;1.80;;
27313;SDS011;14800;48.174;9.798;2022-07-06T09:15:11;2.90;;;1.95;;
27313;SDS011;14800;48.174;9.798;2022-07-06T09:17:37;6.60;;;1.88;;
27313;SDS011;14800;48.174;9.798;2022-07-06T09:20:10;2.33;;;1.60;;
27313;SDS011;14800;48.174;9.798;2022-07-06T09:22:37;2.00;;;1.55;;
27313;SDS011;14800;48.174;9.798;2022-07-06T09:25:08;1.90;;;1.75;;
27313;SDS011;14800;48.174;9.798;2022-07-06T09:27:46;1.92;;;1.70;;
27313;SDS011;14800;48.174;9.798;2022-07-06T09:30:14;4.13;;;1.80;;
27313;SDS011;14800;48.174;9.798;2022-07-06T09:32:44;1.85;;;1.75;;
27313;SDS011;14800;48.174;9.798;2022-07-06T09:40:39;1.83;;;1.40;;
27313;SDS011;14800;48.174;9.798;2022-07-06T09:45:43;2.38;;;1.95;;
27313;SDS011;14800;48.174;9.798;2022-07-06T09:48:25;4.00;;;1.50;;
27313;SDS011;14800;48.174;9.798;2022-07-06T09:50:59;2.83;;;1.50;;
27313;SDS011;14800;48.174;9.798;2022-07-06T09:53:28;2.42;;;1.80;;
27313;SDS011;14800;48.174;9.798;2022-07-06T09:55:55;1.67;;;1.58;;
27313;SDS011;14800;48.174;9.798;2022-07-06T09:58:23;4.10;;;1.70;;
27313;SDS011;14800;48.174;9.798;2022-07-06T10:00:50;3.95;;;1.52;;
27313;SDS011;14800;48.174;9.798;2022-07-06T10:03:16;1.70;;;1.60;;
27313;SDS011;14800;48.174;9.798;2022-07-06T10:05:46;2.55;;;1.58;;
27313;SDS011;14800;48.174;9.798;2022-07-06T10:08:14;1.90;;;1.70;;
27313;SDS011;14800;48.174;9.798;2022-07-06T10:10:41;2.90;;;1.52;;
27313;SDS011;14800;48.174;9.798;2022-07-06T10:13:08;2.70;;;1.83;;
27313;SDS011;14800;48.174;9.798;2022-07-06T10:15:37;3.38;;;1.92;;
27313;SDS011;14800;48.174;9.798;2022-07-06T10:18:05;2.13;;;1.92;;
27313;SDS011;14800;48.174;9.798;2022-07-06T10:20:33;3.25;;;1.63;;
27313;SDS011;14800;48.174;9.798;2022-07-06T10:23:04;1.70;;;1.60;;
27313;SDS011;14800;48.174;9.798;2022-07-06T10:25:32;1.90;;;1.80;;
27313;SDS011;14800;48.174;9.798;2022-07-06T10:27:59;3.72;;;2.03;;
27313;SDS011;14800;48.174;9.798;2022-07-06T10:30:25;2.15;;;1.92;;
27313;SDS011;14800;48.174;9.798;2022-07-06T10:32:53;2.58;;;1.90;;
27313;SDS011;14800;48.174;9.798;2022-07-06T10:35:21;1.65;;;1.55;;
27313;SDS011;14800;48.174;9.798;2022-07-06T10:38:30;5.28;;;1.88;;
27313;SDS011;14800;48.174;9.798;2022-07-06T10:40:37;1.73;;;1.40;;
27313;SDS011;14800;48.174;9.798;2022-07-06T10:43:22;2.17;;;1.40;;
27313;SDS011;14800;48.174;9.798;2022-07-06T10:45:55;3.58;;;1.38;;
27313;SDS011;14800;48.174;9.798;2022-07-06T10:48:21;1.73;;;1.63;;
27313;SDS011;14800;48.174;9.798;2022-07-06T10:50:49;1.85;;;1.40;;
27313;SDS011;14800;48.174;9.798;2022-07-06T10:53:16;2.75;;;1.42;;
27313;SDS011;14800;48.174;9.798;2022-07-06T10:55:46;1.80;;;1.42;;
27313;SDS011;14800;48.174;9.798;2022-07-06T10:58:15;2.45;;;1.10;;
27313;SDS011;14800;48.174;9.798;2022-07-06T11:01:02;1.30;;;1.20;;
27313;SDS011;14800;48.174;9.798;2022-07-06T11:03:29;2.10;;;1.27;;
27313;SDS011;14800;48.174;9.798;2022-07-06T11:08:42;1.90;;;1.15;;
27313;SDS011;14800;48.174;9.798;2022-07-06T11:11:15;4.18;;;1.30;;
27313;SDS011;14800;48.174;9.798;2022-07-06T11:13:48;1.73;;;1.10;;
27313;SDS011;14800;48.174;9.798;2022-07-06T11:16:16;1.48;;;1.15;;
27313;SDS011;14800;48.174;9.798;2022-07-06T11:18:50;2.80;;;1.30;;
27313;SDS011;14800;48.174;9.798;2022-07-06T11:21:39;1.45;;;1.20;;
27313;SDS011;14800;48.174;9.798;2022-07-06T11:24:10;1.38;;;1.20;;
27313;SDS011;14800;48.174;9.798;2022-07-06T11:26:39;1.92;;;1.20;;
27313;SDS011;14800;48.174;9.798;2022-07-06T11:29:06;2.13;;;1.15;;
27313;SDS011;14800;48.174;9.798;2022-07-06T11:31:41;1.73;;;1.33;;
27313;SDS011;14800;48.174;9.798;2022-07-06T11:34:08;1.20;;;1.10;;
27313;SDS011;14800;48.174;9.798;2022-07-06T11:36:35;1.23;;;1.13;;
27313;SDS011;14800;48.174;9.798;2022-07-06T11:39:02;1.15;;;1.02;;
27313;SDS011;14800;48.174;9.798;2022-07-06T11:41:30;1.33;;;1.10;;
27313;SDS011;14800;48.174;9.798;2022-07-06T11:43:56;3.88;;;1.05;;
27313;SDS011;14800;48.174;9.798;2022-07-06T11:49:00;2.20;;;1.27;;
27313;SDS011;14800;48.174;9.798;2022-07-06T11:51:34;2.20;;;0.88;;
27313;SDS011;14800;48.174;9.798;2022-07-06T11:54:08;2.58;;;1.08;;
27313;SDS011;14800;48.174;9.798;2022-07-06T11:56:35;1.55;;;1.10;;
27313;SDS011;14800;48.174;9.798;2022-07-06T11:59:02;1.73;;;1.27;;
27313;SDS011;14800;48.174;9.798;2022-07-06T12:01:29;3.13;;;1.05;;
27313;SDS011;14800;48.174;9.798;2022-07-06T12:03:59;1.52;;;1.00;;
27313;SDS011;14800;48.174;9.798;2022-07-06T12:06:26;2.95;;;1.10;;
27313;SDS011;14800;48.174;9.798;2022-07-06T12:08:52;1.30;;;1.20;;
27313;SDS011;14800;48.174;9.798;2022-07-06T12:11:30;2.33;;;1.00;;
27313;SDS011;14800;48.174;9.798;2022-07-06T12:14:01;1.33;;;1.15;;
27313;SDS011;14800;48.174;9.798;2022-07-06T12:16:48;1.35;;;1.10;;
27313;SDS011;14800;48.174;9.798;2022-07-06T12:19:15;1.80;;;1.05;;
27313;SDS011;14800;48.174;9.798;2022-07-06T12:24:16;1.10;;;1.00;;
27313;SDS011;14800;48.174;9.798;2022-07-06T12:26:53;1.52;;;1.23;;
27313;SDS011;14800;48.174;9.798;2022-07-06T12:29:20;1.45;;;1.10;;
27313;SDS011;14800;48.174;9.798;2022-07-06T12:34:20;1.33;;;1.10;;
27313;SDS011;14800;48.174;9.798;2022-07-06T12:36:51;1.02;;;1.00;;
27313;SDS011;14800;48.174;9.798;2022-07-06T12:39:25;1.15;;;0.90;;
27313;SDS011;14800;48.174;9.798;2022-07-06T12:41:58;1.90;;;1.00;;
27313;SDS011;14800;48.174;9.798;2022-07-06T12:44:27;1.63;;;1.20;;
27313;SDS011;14800;48.174;9.798;2022-07-06T12:49:29;1.25;;;1.00;;
27313;SDS011;14800;48.174;9.798;2022-07-06T12:54:44;1.45;;;1.13;;
27313;SDS011;14800;48.174;9.798;2022-07-06T12:57:12;2.83;;;1.03;;
27313;SDS011;14800;48.174;9.798;2022-07-06T13:00:03;1.80;;;1.33;;
27313;SDS011;14800;48.174;9.798;2022-07-06T13:02:31;1.17;;;0.90;;
27313;SDS011;14800;48.174;9.798;2022-07-06T13:07:38;1.50;;;1.00;;
27313;SDS011;14800;48.174;9.798;2022-07-06T13:10:09;1.33;;;1.00;;
27313;SDS011;14800;48.174;9.798;2022-07-06T13:12:36;0.90;;;0.90;;
27313;SDS011;14800;48.174;9.798;2022-07-06T13:15:02;2.30;;;1.13;;
27313;SDS011;14800;48.174;9.798;2022-07-06T13:17:28;2.10;;;1.10;;
27313;SDS011;14800;48.174;9.798;2022-07-06T13:19:54;1.58;;;1.10;;
27313;SDS011;14800;48.174;9.798;2022-07-06T13:22:19;0.80;;;0.80;;
27313;SDS011;14800;48.174;9.798;2022-07-06T13:24:45;1.33;;;1.10;;
27313;SDS011;14800;48.174;9.798;2022-07-06T13:27:10;1.40;;;1.05;;
27313;SDS011;14800;48.174;9.798;2022-07-06T13:29:37;3.53;;;1.00;;
27313;SDS011;14800;48.174;9.798;2022-07-06T13:32:03;1.95;;;1.20;;
27313;SDS011;14800;48.174;9.798;2022-07-06T13:34:29;1.00;;;0.90;;
27313;SDS011;14800;48.174;9.798;2022-07-06T13:36:55;1.35;;;1.08;;
27313;SDS011;14800;48.174;9.798;2022-07-06T13:39:21;1.73;;;1.00;;
27313;SDS011;14800;48.174;9.798;2022-07-06T13:41:47;2.05;;;0.82;;
27313;SDS011;14800;48.174;9.798;2022-07-06T13:44:12;2.88;;;1.30;;
27313;SDS011;14800;48.174;9.798;2022-07-06T13:46:38;2.55;;;1.20;;
27313;SDS011;14800;48.174;9.798;2022-07-06T13:49:04;0.80;;;0.80;;
27313;SDS011;14800;48.174;9.798;2022-07-06T13:51:30;1.00;;;0.90;;
27313;SDS011;14800;48.174;9.798;2022-07-06T13:53:57;0.98;;;0.98;;
27313;SDS011;14800;48.174;9.798;2022-07-06T13:56:23;2.67;;;1.08;;
27313;SDS011;14800;48.174;9.798;2022-07-06T13:58:49;1.27;;;0.95;;
27313;SDS011;14800;48.174;9.798;2022-07-06T14:01:15;1.23;;;1.02;;
27313;SDS011;14800;48.174;9.798;2022-07-06T14:03:41;0.90;;;0.85;;
27313;SDS011;14800;48.174;9.798;2022-07-06T14:06:07;2.08;;;0.90;;
27313;SDS011;14800;48.174;9.798;2022-07-06T14:08:33;0.95;;;0.80;;
27313;SDS011;14800;48.174;9.798;2022-07-06T14:11:00;3.80;;;0.90;;
27313;SDS011;14800;48.174;9.798;2022-07-06T14:13:26;1.15;;;0.90;;
27313;SDS011;14800;48.174;9.798;2022-07-06T14:15:52;0.80;;;0.77;;
27313;SDS011;14800;48.174;9.798;2022-07-06T14:18:18;1.67;;;0.88;;
27313;SDS011;14800;48.174;9.798;2022-07-06T14:20:47;1.00;;;0.85;;
27313;SDS011;14800;48.174;9.798;2022-07-06T14:23:14;0.70;;;0.70;;
27313;SDS011;14800;48.174;9.798;2022-07-06T14:25:40;2.38;;;1.10;;
27313;SDS011;14800;48.174;9.798;2022-07-06T14:28:07;0.85;;;0.85;;
27313;SDS011;14800;48.174;9.798;2022-07-06T14:30:33;1.15;;;0.90;;
27313;SDS011;14800;48.174;9.798;2022-07-06T14:33:01;0.90;;;0.90;;
27313;SDS011;14800;48.174;9.798;2022-07-06T14:35:37;1.25;;;0.90;;
27313;SDS011;14800;48.174;9.798;2022-07-06T14:38:12;1.15;;;0.90;;
27313;SDS011;14800;48.174;9.798;2022-07-06T14:40:38;1.30;;;0.90;;
27313;SDS011;14800;48.174;9.798;2022-07-06T14:43:04;1.17;;;0.90;;
27313;SDS011;14800;48.174;9.798;2022-07-06T14:45:30;1.05;;;0.80;;
27313;SDS011;14800;48.174;9.798;2022-07-06T14:47:57;4.78;;;0.90;;
27313;SDS011;14800;48.174;9.798;2022-07-06T14:50:22;1.55;;;1.10;;
27313;SDS011;14800;48.174;9.798;2022-07-06T14:52:48;2.33;;;0.90;;
27313;SDS011;14800;48.174;9.798;2022-07-06T14:55:14;3.50;;;1.02;;
27313;SDS011;14800;48.174;9.798;2022-07-06T14:57:40;4.40;;;1.05;;
27313;SDS011;14800;48.174;9.798;2022-07-06T15:00:06;2.35;;;1.00;;
27313;SDS011;14800;48.174;9.798;2022-07-06T15:02:34;1.20;;;1.10;;
27313;SDS011;14800;48.174;9.798;2022-07-06T15:05:00;1.50;;;1.40;;
27313;SDS011;14800;48.174;9.798;2022-07-06T15:07:26;1.67;;;1.33;;
27313;SDS011;14800;48.174;9.798;2022-07-06T15:09:51;1.40;;;1.30;;
27313;SDS011;14800;48.174;9.798;2022-07-06T15:12:17;1.40;;;1.30;;
27313;SDS011;14800;48.174;9.798;2022-07-06T15:14:43;2.33;;;1.33;;